createdAt,value
2023-05-23T00:02:09.625Z,18.50
2023-05-23T00:04:38.607Z,20.75
2023-05-23T00:07:07.688Z,19.17
2023-05-23T00:09:36.672Z,20.27
2023-05-23T00:12:07.926Z,20.08
2023-05-23T00:14:36.829Z,20.27
2023-05-23T00:17:08.342Z,21.00
2023-05-23T00:19:37.497Z,20.40
2023-05-23T00:22:06.872Z,20.70
2023-05-23T00:24:35.967Z,20.35
2023-05-23T00:27:05.255Z,21.25
2023-05-23T00:29:35.593Z,20.10
2023-05-23T00:32:04.625Z,19.17
2023-05-23T00:34:34.337Z,20.00
2023-05-23T00:37:03.391Z,21.27
2023-05-23T00:39:32.540Z,18.85
2023-05-23T00:42:05.225Z,22.42
2023-05-23T00:44:35.616Z,20.08
2023-05-23T00:47:08.620Z,19.75
2023-05-23T00:49:38.239Z,18.88
2023-05-23T00:52:07.969Z,18.20
2023-05-23T00:54:38.285Z,17.50
2023-05-23T00:57:08.237Z,17.02
2023-05-23T00:59:39.776Z,18.25
2023-05-23T01:02:09.614Z,17.83
2023-05-23T01:04:39.092Z,19.77
2023-05-23T01:07:08.328Z,18.00
2023-05-23T01:09:37.765Z,17.92
2023-05-23T01:12:18.429Z,18.35
2023-05-23T01:14:57.922Z,19.02
2023-05-23T01:17:33.417Z,19.92
2023-05-23T01:20:10.153Z,19.50
2023-05-23T01:23:11.781Z,19.73
2023-05-23T01:25:59.559Z,21.05
2023-05-23T01:28:33.899Z,19.75
2023-05-23T01:31:05.269Z,21.02
2023-05-23T01:33:34.870Z,18.80
2023-05-23T01:36:04.707Z,19.10
2023-05-23T01:38:33.703Z,18.42
2023-05-23T01:41:02.803Z,17.40
2023-05-23T01:43:36.013Z,17.63
2023-05-23T01:46:07.598Z,17.77
2023-05-23T01:48:37.669Z,16.15
2023-05-23T01:51:08.276Z,18.73
2023-05-23T01:53:38.828Z,16.45
2023-05-23T01:56:08.085Z,16.48
2023-05-23T01:58:38.873Z,15.65
2023-05-23T02:01:08.243Z,16.33
2023-05-23T02:03:38.677Z,15.43
2023-05-23T02:06:07.932Z,17.27
2023-05-23T02:08:37.082Z,17.40
2023-05-23T02:11:06.086Z,16.58
2023-05-23T02:13:34.976Z,15.70
2023-05-23T02:16:08.076Z,17.02
2023-05-23T02:18:38.369Z,17.00
2023-05-23T02:21:07.745Z,15.90
2023-05-23T02:23:39.761Z,15.13
2023-05-23T02:26:08.870Z,15.55
2023-05-23T02:28:38.205Z,16.17
2023-05-23T02:31:08.565Z,15.77
2023-05-23T02:33:37.832Z,15.88
2023-05-23T02:36:07.493Z,15.20
2023-05-23T02:38:38.972Z,16.15
2023-05-23T02:41:10.126Z,14.45
2023-05-23T02:43:42.141Z,13.52
2023-05-23T02:46:14.763Z,12.70
2023-05-23T02:48:45.484Z,13.30
2023-05-23T02:51:17.248Z,12.95
2023-05-23T02:53:46.888Z,11.25
2023-05-23T02:56:16.187Z,13.35
2023-05-23T02:58:46.714Z,11.32
2023-05-23T03:01:18.201Z,12.05
2023-05-23T03:03:47.333Z,12.65
2023-05-23T03:06:17.136Z,12.88
2023-05-23T03:08:46.378Z,13.35
2023-05-23T03:11:16.381Z,12.95
2023-05-23T03:13:48.186Z,14.52
2023-05-23T03:16:18.674Z,12.52
2023-05-23T03:18:47.816Z,13.63
2023-05-23T03:21:21.649Z,13.52
2023-05-23T03:23:50.731Z,13.82
2023-05-23T03:26:19.584Z,13.95
2023-05-23T03:28:48.973Z,14.52
2023-05-23T03:31:23.125Z,16.73
2023-05-23T03:33:54.331Z,16.38
2023-05-23T03:36:28.739Z,16.52
2023-05-23T03:38:57.874Z,15.50
2023-05-23T03:41:30.095Z,17.08
2023-05-23T03:44:01.337Z,16.77
2023-05-23T03:46:32.068Z,18.38
2023-05-23T03:49:02.420Z,19.17
2023-05-23T03:51:31.656Z,20.83
2023-05-23T03:54:00.962Z,19.95
2023-05-23T03:56:29.965Z,21.05
2023-05-23T03:58:59.167Z,20.50
2023-05-23T04:01:31.238Z,20.52
2023-05-23T04:04:02.801Z,23.80
2023-05-23T04:06:35.169Z,18.83
2023-05-23T04:09:05.602Z,19.42
2023-05-23T04:11:38.569Z,13.27
2023-05-23T04:14:08.048Z,12.02
2023-05-23T04:16:41.765Z,11.73
2023-05-23T04:19:13.732Z,10.75
2023-05-23T04:21:43.051Z,9.10
2023-05-23T04:24:17.843Z,8.02
2023-05-23T04:26:49.831Z,9.45
2023-05-23T04:29:19.072Z,9.27
2023-05-23T04:31:48.237Z,8.57
2023-05-23T04:34:22.473Z,9.05
2023-05-23T04:36:54.022Z,8.85
2023-05-23T04:39:23.555Z,9.20
2023-05-23T04:42:15.172Z,8.85
2023-05-23T04:45:11.585Z,8.93
2023-05-23T04:48:03.597Z,8.57
2023-05-23T04:50:47.641Z,8.60
2023-05-23T04:53:17.320Z,8.80
2023-05-23T04:55:50.041Z,9.05
2023-05-23T04:58:20.328Z,9.40
2023-05-23T05:00:49.424Z,9.63
2023-05-23T05:03:19.654Z,8.68
2023-05-23T05:05:51.149Z,8.43
2023-05-23T05:08:20.804Z,8.70
2023-05-23T05:10:49.906Z,8.63
2023-05-23T05:13:21.298Z,8.90
2023-05-23T05:15:52.946Z,9.40
2023-05-23T05:18:22.363Z,10.23
2023-05-23T05:20:54.811Z,13.25
2023-05-23T05:23:28.970Z,11.35
2023-05-23T05:25:58.988Z,12.55
2023-05-23T05:28:28.188Z,14.70
2023-05-23T05:30:57.278Z,12.93
2023-05-23T05:33:28.512Z,13.27
2023-05-23T05:36:32.644Z,12.80
2023-05-23T05:39:05.939Z,11.90
2023-05-23T05:41:52.450Z,12.65
2023-05-23T05:44:36.823Z,11.00
2023-05-23T05:47:10.160Z,10.77
2023-05-23T05:49:51.636Z,11.05
2023-05-23T05:52:46.076Z,10.60
2023-05-23T05:55:19.316Z,9.60
2023-05-23T05:58:07.377Z,11.20
2023-05-23T06:01:04.195Z,10.10
2023-05-23T06:03:37.187Z,10.10
2023-05-23T06:06:17.592Z,9.48
2023-05-23T06:09:04.598Z,9.45
2023-05-23T06:11:41.664Z,9.35
2023-05-23T06:14:15.729Z,9.80
2023-05-23T06:16:50.103Z,10.50
2023-05-23T06:19:29.259Z,10.70
2023-05-23T06:22:07.037Z,10.88
2023-05-23T06:24:48.271Z,9.98
2023-05-23T06:27:22.060Z,9.57
2023-05-23T06:30:05.057Z,10.93
2023-05-23T06:32:41.354Z,10.38
2023-05-23T06:35:18.711Z,10.43
2023-05-23T06:37:49.657Z,10.00
2023-05-23T06:40:32.106Z,12.02
2023-05-23T06:43:04.975Z,10.90
2023-05-23T06:45:54.855Z,10.50
2023-05-23T06:48:33.862Z,9.98
2023-05-23T06:51:05.882Z,9.75
2023-05-23T06:53:42.404Z,8.52
2023-05-23T06:56:16.840Z,9.15
2023-05-23T06:59:05.656Z,7.85
2023-05-23T07:01:39.515Z,20.42
2023-05-23T07:04:16.671Z,7.32
2023-05-23T07:06:57.052Z,7.50
2023-05-23T07:09:48.231Z,6.25
2023-05-23T07:12:29.928Z,5.97
2023-05-23T07:15:10.591Z,6.15
2023-05-23T07:17:56.637Z,5.60
2023-05-23T07:20:38.005Z,7.45
2023-05-23T07:23:28.234Z,6.90
2023-05-23T07:26:10.214Z,6.53
2023-05-23T07:29:07.495Z,7.65
2023-05-23T07:31:38.836Z,6.93
2023-05-23T07:34:18.943Z,6.80
2023-05-23T07:37:10.669Z,6.88
2023-05-23T07:39:49.715Z,5.63
2023-05-23T07:42:29.601Z,5.80
2023-05-23T07:45:04.345Z,6.82
2023-05-23T07:47:36.183Z,6.30
2023-05-23T07:50:17.290Z,5.20
2023-05-23T07:52:58.360Z,5.50
2023-05-23T07:55:32.153Z,6.45
2023-05-23T07:58:31.975Z,8.05
2023-05-23T08:01:11.739Z,6.38
2023-05-23T08:04:18.951Z,6.07
2023-05-23T08:10:02.256Z,6.55
2023-05-23T08:12:38.581Z,6.10
2023-05-23T08:15:29.347Z,7.68
2023-05-23T08:18:33.408Z,7.93
2023-05-23T08:21:05.365Z,8.25
2023-05-23T08:23:40.970Z,7.90
2023-05-23T08:26:16.858Z,10.27
2023-05-23T08:28:49.216Z,7.68
2023-05-23T08:31:18.821Z,7.60
2023-05-23T08:33:54.252Z,7.00
2023-05-23T08:36:23.330Z,7.80
2023-05-23T08:38:53.012Z,7.38
2023-05-23T08:41:34.177Z,7.22
2023-05-23T08:44:06.908Z,6.88
2023-05-23T08:46:47.733Z,7.57
2023-05-23T08:49:27.941Z,7.97
2023-05-23T08:51:59.275Z,5.82
2023-05-23T08:54:29.614Z,7.43
2023-05-23T08:56:58.910Z,6.28
2023-05-23T08:59:28.880Z,6.30
2023-05-23T09:01:58.232Z,5.40
2023-05-23T09:04:29.369Z,5.47
2023-05-23T09:07:02.556Z,5.65
2023-05-23T09:09:34.070Z,4.93
2023-05-23T09:12:05.092Z,5.60
2023-05-23T09:14:34.810Z,5.72
2023-05-23T09:17:08.094Z,5.35
2023-05-23T09:19:43.126Z,5.65
2023-05-23T09:22:31.277Z,7.78
2023-05-23T09:25:09.467Z,6.82
2023-05-23T09:27:42.145Z,5.95
2023-05-23T09:30:13.372Z,6.03
2023-05-23T09:32:42.822Z,5.85
2023-05-23T09:35:14.533Z,4.38
2023-05-23T09:37:47.073Z,5.95
2023-05-23T09:40:17.240Z,6.05
2023-05-23T09:42:52.706Z,5.30
2023-05-23T09:45:21.708Z,4.45
2023-05-23T09:47:54.508Z,4.40
2023-05-23T09:50:25.727Z,4.40
2023-05-23T09:52:55.068Z,4.65
2023-05-23T09:55:24.164Z,4.03
2023-05-23T09:57:56.785Z,5.13
2023-05-23T10:00:26.294Z,6.00
2023-05-23T10:03:10.729Z,7.00
2023-05-23T10:05:45.869Z,7.10
2023-05-23T10:08:19.857Z,6.78
2023-05-23T10:11:49.987Z,7.25
2023-05-23T10:14:20.134Z,6.25
2023-05-23T10:17:01.011Z,4.85
2023-05-23T10:19:39.795Z,5.22
2023-05-23T10:22:15.058Z,4.75
2023-05-23T10:24:45.985Z,5.28
2023-05-23T10:27:16.093Z,5.00
2023-05-23T10:29:45.995Z,3.70
2023-05-23T10:32:17.062Z,3.38
2023-05-23T10:34:57.776Z,3.90
2023-05-23T10:37:34.635Z,4.00
2023-05-23T10:40:08.593Z,3.60
2023-05-23T10:42:46.610Z,2.95
2023-05-23T10:45:21.982Z,2.47
2023-05-23T10:47:55.096Z,2.22
2023-05-23T10:50:34.907Z,2.67
2023-05-23T10:53:06.869Z,2.28
2023-05-23T10:55:37.430Z,3.03
2023-05-23T10:58:13.991Z,1.92
2023-05-23T11:00:53.217Z,2.15
2023-05-23T11:03:35.908Z,2.42
2023-05-23T11:06:06.148Z,2.60
2023-05-23T11:08:48.524Z,2.42
2023-05-23T11:11:17.874Z,2.60
2023-05-23T11:14:02.560Z,2.13
2023-05-23T11:16:33.877Z,2.33
2023-05-23T11:19:28.197Z,2.05
2023-05-23T11:22:00.393Z,2.72
2023-05-23T11:24:53.308Z,2.30
2023-05-23T11:27:28.580Z,3.08
2023-05-23T11:30:03.833Z,2.72
2023-05-23T11:32:33.179Z,3.58
2023-05-23T11:35:02.673Z,3.20
2023-05-23T11:37:32.554Z,4.38
2023-05-23T11:40:26.859Z,4.05
2023-05-23T11:42:55.996Z,3.25
2023-05-23T11:45:25.762Z,3.17
2023-05-23T11:47:55.096Z,2.38
2023-05-23T11:50:24.524Z,3.17
2023-05-23T11:52:55.792Z,3.28
2023-05-23T11:55:26.498Z,2.97
2023-05-23T11:57:58.843Z,3.22
2023-05-23T12:02:56.486Z,2.90
2023-05-23T12:05:25.716Z,3.63
2023-05-23T12:07:54.783Z,3.25
2023-05-23T12:10:30.647Z,2.72
2023-05-23T12:12:59.641Z,2.40
2023-05-23T12:15:28.930Z,3.65
2023-05-23T12:17:58.148Z,2.35
2023-05-23T12:20:27.905Z,2.72
2023-05-23T12:22:58.652Z,2.60
2023-05-23T12:25:27.901Z,2.88
2023-05-23T12:28:01.543Z,2.20
2023-05-23T12:30:30.554Z,2.92
2023-05-23T12:33:00.090Z,2.25
2023-05-23T12:35:29.332Z,3.22
2023-05-23T12:37:58.858Z,2.83
2023-05-23T12:40:27.790Z,2.55
2023-05-23T12:42:58.736Z,3.10
2023-05-23T12:45:33.585Z,2.35
2023-05-23T12:48:03.363Z,2.58
2023-05-23T12:50:32.569Z,3.38
2023-05-23T12:53:01.445Z,2.85
2023-05-23T12:55:30.311Z,2.50
2023-05-23T12:58:00.733Z,2.80
2023-05-23T13:00:29.681Z,2.40
2023-05-23T13:02:58.665Z,3.00
2023-05-23T13:05:27.835Z,3.05
2023-05-23T13:07:59.523Z,2.92
2023-05-23T13:10:30.899Z,3.05
2023-05-23T13:13:02.466Z,3.75
2023-05-23T13:15:31.621Z,2.88
2023-05-23T13:18:01.017Z,2.70
2023-05-23T13:20:31.859Z,3.88
2023-05-23T13:23:01.142Z,2.33
2023-05-23T13:25:30.144Z,3.70
2023-05-23T13:27:59.051Z,2.97
2023-05-23T13:30:29.785Z,2.85
2023-05-23T13:32:58.899Z,3.45
2023-05-23T13:35:28.083Z,3.25
2023-05-23T13:37:56.948Z,2.85
2023-05-23T13:40:25.924Z,3.15
2023-05-23T13:42:54.892Z,3.03
2023-05-23T13:45:23.913Z,2.90
2023-05-23T13:47:54.331Z,3.67
2023-05-23T13:50:23.743Z,3.78
2023-05-23T13:52:54.076Z,3.05
2023-05-23T13:55:23.183Z,3.45
2023-05-23T13:57:52.087Z,2.70
2023-05-23T14:00:22.697Z,2.83
2023-05-23T14:02:51.555Z,2.58
2023-05-23T14:05:22.029Z,2.80
2023-05-23T14:07:51.041Z,3.20
2023-05-23T14:10:20.012Z,2.60
2023-05-23T14:12:48.891Z,2.78
2023-05-23T14:15:18.399Z,2.70
2023-05-23T14:17:47.431Z,3.95
2023-05-23T14:20:16.366Z,2.75
2023-05-23T14:22:46.644Z,2.75
2023-05-23T14:25:15.608Z,2.50
2023-05-23T14:27:45.938Z,2.72
2023-05-23T14:30:17.432Z,2.97
2023-05-23T14:32:47.261Z,2.85
2023-05-23T14:35:16.257Z,2.90
2023-05-23T14:37:47.636Z,2.67
2023-05-23T14:40:17.371Z,4.05
2023-05-23T14:42:46.333Z,2.70
2023-05-23T14:45:17.869Z,2.63
2023-05-23T14:47:47.857Z,3.00
2023-05-23T14:50:17.152Z,3.83
2023-05-23T14:52:47.539Z,2.58
2023-05-23T14:55:16.402Z,2.53
2023-05-23T14:57:45.252Z,2.83
2023-05-23T15:00:15.140Z,2.83
2023-05-23T15:02:44.098Z,2.42
2023-05-23T15:05:14.016Z,3.10
2023-05-23T15:07:42.920Z,2.97
2023-05-23T15:10:13.317Z,2.20
2023-05-23T15:12:42.769Z,1.92
2023-05-23T15:15:12.527Z,2.53
2023-05-23T15:17:43.141Z,3.03
2023-05-23T15:20:13.135Z,2.53
2023-05-23T15:22:42.182Z,2.08
2023-05-23T15:25:12.789Z,2.30
2023-05-23T15:27:41.742Z,2.58
2023-05-23T15:30:11.384Z,2.70
2023-05-23T15:32:40.745Z,2.60
2023-05-23T15:35:10.695Z,2.50
2023-05-23T15:37:39.746Z,2.38
2023-05-23T15:40:09.528Z,2.67
2023-05-23T15:42:40.210Z,2.50
2023-05-23T15:45:10.260Z,2.50
2023-05-23T15:47:39.390Z,2.70
2023-05-23T15:50:10.117Z,2.50
2023-05-23T15:52:40.212Z,2.55
2023-05-23T15:55:09.897Z,2.47
2023-05-23T15:57:40.382Z,2.30
2023-05-23T16:00:10.641Z,2.50
2023-05-23T16:02:42.686Z,2.67
2023-05-23T16:05:11.689Z,2.33
2023-05-23T16:07:40.720Z,2.72
2023-05-23T16:10:10.464Z,2.60
2023-05-23T16:12:41.043Z,2.20
2023-05-23T16:15:11.157Z,3.10
2023-05-23T16:17:40.149Z,2.42
2023-05-23T16:20:10.036Z,2.20
2023-05-23T16:22:39.041Z,2.95
2023-05-23T16:25:09.376Z,2.40
2023-05-23T16:27:38.364Z,2.25
2023-05-23T16:30:09.979Z,2.70
2023-05-23T16:32:38.912Z,2.38
2023-05-23T16:35:08.909Z,2.40
2023-05-23T16:37:37.870Z,2.30
2023-05-23T16:40:10.864Z,2.60
2023-05-23T16:42:39.840Z,2.10
2023-05-23T16:45:10.821Z,2.22
2023-05-23T16:47:39.781Z,2.42
2023-05-23T16:50:09.749Z,2.55
2023-05-23T16:52:39.596Z,2.53
2023-05-23T16:55:11.331Z,1.70
2023-05-23T16:57:40.285Z,2.40
2023-05-23T17:00:26.723Z,5.35
2023-05-23T17:02:55.918Z,2.20
2023-05-23T17:05:28.089Z,2.17
2023-05-23T17:07:59.480Z,2.30
2023-05-23T17:10:30.763Z,2.30
2023-05-23T17:12:59.672Z,3.05
2023-05-23T17:15:30.163Z,2.47
2023-05-23T17:17:59.884Z,3.55
2023-05-23T17:20:29.004Z,1.75
2023-05-23T17:22:57.967Z,2.10
2023-05-23T17:25:26.996Z,2.30
2023-05-23T17:27:56.518Z,2.13
2023-05-23T17:30:25.283Z,2.17
2023-05-23T17:32:55.708Z,2.03
2023-05-23T17:35:24.629Z,2.22
2023-05-23T17:37:57.600Z,2.20
2023-05-23T17:40:27.128Z,2.38
2023-05-23T17:42:56.005Z,2.03
2023-05-23T17:45:25.163Z,2.17
2023-05-23T17:47:55.705Z,2.28
2023-05-23T17:50:24.553Z,2.28
2023-05-23T17:52:53.620Z,1.75
2023-05-23T17:55:22.900Z,2.35
2023-05-23T17:57:51.876Z,2.08
2023-05-23T18:00:21.495Z,1.45
2023-05-23T18:02:51.253Z,1.90
2023-05-23T18:05:23.735Z,2.50
2023-05-23T18:07:52.668Z,2.25
2023-05-23T18:10:22.079Z,1.63
2023-05-23T18:12:52.486Z,1.95
2023-05-23T18:15:21.318Z,1.50
2023-05-23T18:17:53.028Z,2.03
2023-05-23T18:20:23.388Z,1.85
2023-05-23T18:22:54.761Z,1.98
2023-05-23T18:25:27.807Z,2.60
2023-05-23T18:27:59.132Z,2.35
2023-05-23T18:30:28.418Z,2.55
2023-05-23T18:32:59.001Z,2.08
2023-05-23T18:35:29.687Z,1.85
2023-05-23T18:37:58.709Z,1.67
2023-05-23T18:40:27.771Z,2.15
2023-05-23T18:42:59.082Z,1.90
2023-05-23T18:45:28.392Z,2.15
2023-05-23T18:47:57.477Z,2.03
2023-05-23T18:50:26.591Z,1.75
2023-05-23T18:52:57.008Z,2.35
2023-05-23T18:55:25.861Z,1.88
2023-05-23T18:57:54.881Z,2.90
2023-05-23T19:00:24.260Z,1.75
2023-05-23T19:02:53.391Z,2.40
2023-05-23T19:05:22.795Z,1.90
2023-05-23T19:07:51.787Z,2.42
2023-05-23T19:10:22.250Z,1.95
2023-05-23T19:12:51.461Z,2.33
2023-05-23T19:15:21.142Z,2.22
2023-05-23T19:17:52.937Z,1.42
2023-05-23T19:20:22.099Z,1.80
2023-05-23T19:22:52.495Z,2.28
2023-05-23T19:25:23.602Z,1.88
2023-05-23T19:27:52.661Z,2.28
2023-05-23T19:30:22.119Z,1.48
2023-05-23T19:32:51.191Z,1.58
2023-05-23T19:35:20.268Z,1.95
2023-05-23T19:37:50.174Z,2.42
2023-05-23T19:40:21.464Z,2.00
2023-05-23T19:42:52.005Z,1.63
2023-05-23T19:45:21.366Z,2.10
2023-05-23T19:47:50.632Z,1.75
2023-05-23T19:50:21.838Z,2.03
2023-05-23T19:52:51.444Z,1.55
2023-05-23T19:55:20.528Z,2.28
2023-05-23T19:57:49.597Z,1.52
2023-05-23T20:00:21.634Z,2.83
2023-05-23T20:02:51.564Z,2.38
2023-05-23T20:05:21.859Z,3.10
2023-05-23T20:07:53.189Z,2.67
2023-05-23T20:10:24.594Z,3.90
2023-05-23T20:12:55.816Z,4.05
2023-05-23T20:15:38.650Z,1.90
2023-05-23T20:20:38.047Z,2.15
2023-05-23T20:23:07.602Z,2.40
2023-05-23T20:25:36.806Z,2.42
2023-05-23T20:28:07.243Z,2.70
2023-05-23T20:30:38.778Z,2.30
2023-05-23T20:33:10.074Z,1.88
2023-05-23T20:35:41.381Z,1.58
2023-05-23T20:38:11.597Z,2.20
2023-05-23T20:40:40.644Z,3.15
2023-05-23T20:43:15.143Z,2.70
2023-05-23T20:45:46.545Z,3.15
2023-05-23T20:48:15.642Z,2.90
2023-05-23T20:50:45.257Z,3.20
2023-05-23T20:53:14.327Z,2.58
2023-05-23T20:55:43.602Z,2.65
2023-05-23T20:58:12.702Z,1.75
2023-05-23T21:00:41.944Z,2.50
2023-05-23T21:03:12.541Z,1.45
2023-05-23T21:05:42.017Z,1.77
2023-05-23T21:08:11.150Z,2.97
2023-05-23T21:10:40.111Z,1.70
2023-05-23T21:13:09.197Z,2.15
2023-05-23T21:15:38.121Z,2.17
2023-05-23T21:18:09.689Z,2.22
2023-05-23T21:20:42.456Z,2.15
2023-05-23T21:23:12.121Z,2.08
2023-05-23T21:25:41.306Z,2.10
2023-05-23T21:28:10.344Z,1.92
2023-05-23T21:30:39.696Z,1.77
2023-05-23T21:33:08.880Z,1.52
2023-05-23T21:35:39.460Z,1.85
2023-05-23T21:38:08.367Z,2.10
2023-05-23T21:40:37.277Z,2.75
2023-05-23T21:43:06.209Z,1.70
2023-05-23T21:45:35.287Z,1.67
2023-05-23T21:48:04.399Z,1.85
2023-05-23T21:50:33.269Z,1.92
2023-05-23T21:53:03.584Z,1.70
2023-05-23T21:55:33.175Z,2.17
2023-05-23T21:58:04.469Z,1.85
2023-05-23T22:00:33.722Z,1.63
2023-05-23T22:03:02.800Z,1.60
2023-05-23T22:05:31.783Z,1.15
2023-05-23T22:08:00.758Z,1.92
2023-05-23T22:10:31.743Z,3.03
2023-05-23T22:13:01.027Z,2.92
2023-05-23T22:15:30.203Z,1.40
2023-05-23T22:17:59.503Z,1.67
2023-05-23T22:20:29.750Z,1.75
2023-05-23T22:23:02.198Z,1.85
2023-05-23T22:25:35.266Z,1.90
2023-05-23T22:28:04.072Z,1.80
2023-05-23T22:30:32.941Z,1.60
2023-05-23T22:33:01.884Z,1.35
2023-05-23T22:35:32.105Z,1.80
2023-05-23T22:38:01.026Z,1.30
2023-05-23T22:40:29.899Z,1.60
2023-05-23T22:43:00.361Z,2.08
2023-05-23T22:45:30.150Z,1.20
2023-05-23T22:48:00.830Z,1.70
2023-05-23T22:50:30.213Z,10.88
2023-05-23T22:52:59.319Z,2.50
2023-05-23T22:55:28.513Z,2.35
2023-05-23T22:57:57.519Z,1.42
2023-05-23T23:00:28.727Z,3.13
2023-05-23T23:02:57.619Z,2.38
2023-05-23T23:05:26.410Z,1.65
2023-05-23T23:07:55.508Z,1.95
2023-05-23T23:10:24.305Z,1.50
2023-05-23T23:12:53.208Z,1.85
2023-05-23T23:15:24.835Z,1.65
2023-05-23T23:17:56.638Z,1.67
2023-05-23T23:20:28.047Z,2.00
2023-05-23T23:22:57.666Z,1.98
2023-05-23T23:25:26.942Z,1.70
2023-05-23T23:27:57.165Z,2.10
2023-05-23T23:30:25.936Z,1.85
2023-05-23T23:32:56.294Z,1.90
2023-05-23T23:35:25.219Z,2.03
2023-05-23T23:37:54.108Z,2.00
2023-05-23T23:40:23.314Z,1.98
2023-05-23T23:42:52.106Z,1.73
2023-05-23T23:45:21.283Z,3.70
2023-05-23T23:47:50.218Z,2.78
2023-05-23T23:50:20.879Z,2.85
2023-05-23T23:52:50.095Z,1.80
2023-05-23T23:55:20.332Z,1.92
2023-05-23T23:57:49.170Z,2.03
